This is the latest recevied weather packets stored in our database for station/object KD4KKF. If no packets are shown the sender has not sent any weather packets the latest 10 day(s).
| Time | Temp. | Humidity | Pressure | Rain* | Wind** | Luminosity | Snow |
|---|---|---|---|---|---|---|---|
| 1777224735 | 28.33° C | 58% | 1011.7 hPa | 0 mm | - | 677 W/m² | - |
| 1777224430 | 28.33° C | 57% | 1012 hPa | 0 mm | - | 819 W/m² | - |
| 1777224126 | 27.22° C | 59% | 1012 hPa | 0 mm | - | 802 W/m² | - |
| 1777223823 | 26.67° C | 60% | 1012 hPa | 0 mm | - | 375 W/m² | - |
| 1777223519 | 26.67° C | 63% | 1012.1 hPa | 0 mm | - | 441 W/m² | - |
| 1777223217 | 26.67° C | 65% | 1012.1 hPa | 0 mm | - | 423 W/m² | - |
| 1777222914 | 26.67° C | 67% | 1012 hPa | 0 mm | - | 273 W/m² | - |
| 1777222611 | 26.67° C | 65% | 1012.1 hPa | 0 mm | - | 273 W/m² | - |
| 1777222309 | 27.22° C | 64% | 1012.1 hPa | 0 mm | - | 240 W/m² | - |
| 1777222008 | 28.33° C | 62% | 1012.1 hPa | 0 mm | - | 888 W/m² | - |
| 1777221703 | 27.78° C | 63% | 1012 hPa | 0 mm | - | 842 W/m² | - |
| 1777221399 | 26.11° C | 67% | 1012.1 hPa | 0 mm | - | 639 W/m² | - |
| 1777221097 | 26.67° C | 66% | 1012.1 hPa | 0 mm | - | 758 W/m² | - |
| 1777220797 | 27.78° C | 63% | 1012.1 hPa | 0 mm | - | 806 W/m² | - |
| 1777220493 | 26.67° C | 65% | 1012.3 hPa | 0 mm | - | 738 W/m² | - |
| 1777220188 | 27.78° C | 64% | 1012.2 hPa | 0 mm | - | 718 W/m² | - |
| 1777219885 | 27.78° C | 64% | 1012.3 hPa | 0 mm | - | 732 W/m² | - |
| 1777219582 | 26.67° C | 64% | 1012.2 hPa | 0 mm | - | 659 W/m² | - |
| 1777219279 | 27.22° C | 62% | 1012.1 hPa | 0 mm | - | 708 W/m² | - |
| 1777218975 | 26.11° C | 66% | 1011.9 hPa | 0 mm | - | 731 W/m² | - |
| 1777218671 | 26.67° C | 66% | 1011.9 hPa | 0 mm | - | 737 W/m² | - |
| 1777218366 | 26.11° C | 69% | 1012.2 hPa | 0 mm | - | 798 W/m² | - |
| 1777218063 | 26.11° C | 69% | 1012.1 hPa | 0 mm | - | 685 W/m² | - |
| 1777217758 | 25.56° C | 69% | 1012.1 hPa | 0 mm | - | 730 W/m² | - |
| 1777217454 | 25.56° C | 69% | 1012 hPa | 0 mm | - | 595 W/m² | - |
* Rain latest hour (hover to see other rain measurements)
** Current wind speed in m/s (hover to see current wind gust speed)